sensor_id;sensor_type;location;lat;lon;timestamp;P1;durP1;ratioP1;P2;durP2;ratioP2
6269;SDS011;3168;51.684;6.954;2023-02-05T00:00:56;13.60;;;5.80;;
6269;SDS011;3168;51.684;6.954;2023-02-05T00:03:22;9.30;;;5.70;;
6269;SDS011;3168;51.684;6.954;2023-02-05T00:05:48;7.37;;;5.60;;
6269;SDS011;3168;51.684;6.954;2023-02-05T00:08:14;11.17;;;4.90;;
6269;SDS011;3168;51.684;6.954;2023-02-05T00:10:40;10.60;;;6.00;;
6269;SDS011;3168;51.684;6.954;2023-02-05T00:13:06;7.70;;;5.40;;
6269;SDS011;3168;51.684;6.954;2023-02-05T00:15:32;13.57;;;4.70;;
6269;SDS011;3168;51.684;6.954;2023-02-05T00:17:58;5.37;;;4.43;;
6269;SDS011;3168;51.684;6.954;2023-02-05T00:20:24;10.27;;;7.47;;
6269;SDS011;3168;51.684;6.954;2023-02-05T00:22:50;10.63;;;5.63;;
6269;SDS011;3168;51.684;6.954;2023-02-05T00:25:15;19.13;;;4.37;;
6269;SDS011;3168;51.684;6.954;2023-02-05T00:27:41;10.33;;;5.60;;
6269;SDS011;3168;51.684;6.954;2023-02-05T00:30:08;8.13;;;6.33;;
6269;SDS011;3168;51.684;6.954;2023-02-05T00:32:35;8.17;;;5.30;;
6269;SDS011;3168;51.684;6.954;2023-02-05T00:35:02;12.90;;;5.10;;
6269;SDS011;3168;51.684;6.954;2023-02-05T00:37:28;11.90;;;6.80;;
6269;SDS011;3168;51.684;6.954;2023-02-05T00:39:54;11.73;;;5.43;;
6269;SDS011;3168;51.684;6.954;2023-02-05T00:42:19;6.10;;;5.03;;
6269;SDS011;3168;51.684;6.954;2023-02-05T00:44:46;9.27;;;6.63;;
6269;SDS011;3168;51.684;6.954;2023-02-05T00:47:12;9.30;;;5.60;;
6269;SDS011;3168;51.684;6.954;2023-02-05T00:49:37;8.23;;;6.80;;
6269;SDS011;3168;51.684;6.954;2023-02-05T00:52:04;19.83;;;7.00;;
6269;SDS011;3168;51.684;6.954;2023-02-05T00:54:30;6.73;;;3.37;;
6269;SDS011;3168;51.684;6.954;2023-02-05T00:56:55;5.70;;;5.10;;
6269;SDS011;3168;51.684;6.954;2023-02-05T00:59:21;4.07;;;3.80;;
6269;SDS011;3168;51.684;6.954;2023-02-05T01:01:47;5.97;;;5.37;;
6269;SDS011;3168;51.684;6.954;2023-02-05T01:04:13;15.37;;;6.40;;
6269;SDS011;3168;51.684;6.954;2023-02-05T01:06:39;5.07;;;4.60;;
6269;SDS011;3168;51.684;6.954;2023-02-05T01:09:06;4.50;;;4.13;;
6269;SDS011;3168;51.684;6.954;2023-02-05T01:11:31;18.00;;;6.43;;
6269;SDS011;3168;51.684;6.954;2023-02-05T01:13:57;25.83;;;5.80;;
6269;SDS011;3168;51.684;6.954;2023-02-05T01:16:23;7.53;;;4.93;;
6269;SDS011;3168;51.684;6.954;2023-02-05T01:18:49;6.80;;;5.00;;
6269;SDS011;3168;51.684;6.954;2023-02-05T01:21:15;16.00;;;7.07;;
6269;SDS011;3168;51.684;6.954;2023-02-05T01:23:41;7.37;;;4.53;;
6269;SDS011;3168;51.684;6.954;2023-02-05T01:26:07;9.43;;;5.03;;
6269;SDS011;3168;51.684;6.954;2023-02-05T01:28:33;6.23;;;5.10;;
6269;SDS011;3168;51.684;6.954;2023-02-05T01:31:00;6.40;;;5.23;;
6269;SDS011;3168;51.684;6.954;2023-02-05T01:33:26;9.70;;;5.30;;
6269;SDS011;3168;51.684;6.954;2023-02-05T01:35:52;6.53;;;5.60;;
6269;SDS011;3168;51.684;6.954;2023-02-05T01:38:18;5.73;;;3.30;;
6269;SDS011;3168;51.684;6.954;2023-02-05T01:40:44;4.93;;;4.60;;
6269;SDS011;3168;51.684;6.954;2023-02-05T01:43:12;5.43;;;4.93;;
6269;SDS011;3168;51.684;6.954;2023-02-05T01:45:39;5.23;;;4.73;;
6269;SDS011;3168;51.684;6.954;2023-02-05T01:48:07;4.50;;;4.00;;
6269;SDS011;3168;51.684;6.954;2023-02-05T01:50:32;6.87;;;5.77;;
6269;SDS011;3168;51.684;6.954;2023-02-05T01:53:01;5.67;;;4.93;;
6269;SDS011;3168;51.684;6.954;2023-02-05T01:55:26;14.20;;;4.97;;
6269;SDS011;3168;51.684;6.954;2023-02-05T01:57:52;6.90;;;6.07;;
6269;SDS011;3168;51.684;6.954;2023-02-05T02:00:19;6.83;;;6.27;;
6269;SDS011;3168;51.684;6.954;2023-02-05T02:02:44;9.00;;;6.27;;
6269;SDS011;3168;51.684;6.954;2023-02-05T02:05:11;12.70;;;6.80;;
6269;SDS011;3168;51.684;6.954;2023-02-05T02:07:36;7.50;;;5.30;;
6269;SDS011;3168;51.684;6.954;2023-02-05T02:10:02;6.37;;;5.70;;
6269;SDS011;3168;51.684;6.954;2023-02-05T02:12:29;9.10;;;6.80;;
6269;SDS011;3168;51.684;6.954;2023-02-05T02:14:55;24.17;;;4.57;;
6269;SDS011;3168;51.684;6.954;2023-02-05T02:17:21;5.70;;;5.10;;
6269;SDS011;3168;51.684;6.954;2023-02-05T02:19:52;15.27;;;5.70;;
6269;SDS011;3168;51.684;6.954;2023-02-05T02:22:44;4.00;;;3.70;;
6269;SDS011;3168;51.684;6.954;2023-02-05T02:25:19;26.37;;;5.73;;
6269;SDS011;3168;51.684;6.954;2023-02-05T02:27:47;3.83;;;3.47;;
6269;SDS011;3168;51.684;6.954;2023-02-05T02:30:15;5.73;;;4.30;;
6269;SDS011;3168;51.684;6.954;2023-02-05T02:32:45;5.90;;;5.20;;
6269;SDS011;3168;51.684;6.954;2023-02-05T02:35:16;6.40;;;3.57;;
6269;SDS011;3168;51.684;6.954;2023-02-05T02:37:44;8.20;;;4.47;;
6269;SDS011;3168;51.684;6.954;2023-02-05T02:40:09;7.03;;;4.90;;
6269;SDS011;3168;51.684;6.954;2023-02-05T02:42:42;13.13;;;4.40;;
6269;SDS011;3168;51.684;6.954;2023-02-05T02:45:07;14.30;;;5.23;;
6269;SDS011;3168;51.684;6.954;2023-02-05T02:47:35;5.30;;;3.20;;
6269;SDS011;3168;51.684;6.954;2023-02-05T02:50:04;6.23;;;4.70;;
6269;SDS011;3168;51.684;6.954;2023-02-05T02:52:28;17.73;;;4.37;;
6269;SDS011;3168;51.684;6.954;2023-02-05T02:54:55;8.13;;;3.90;;
6269;SDS011;3168;51.684;6.954;2023-02-05T02:57:23;20.23;;;6.10;;
6269;SDS011;3168;51.684;6.954;2023-02-05T02:59:47;6.53;;;3.67;;
6269;SDS011;3168;51.684;6.954;2023-02-05T03:02:13;14.07;;;5.50;;
6269;SDS011;3168;51.684;6.954;2023-02-05T03:04:40;5.10;;;4.67;;
6269;SDS011;3168;51.684;6.954;2023-02-05T03:07:06;19.37;;;5.60;;
6269;SDS011;3168;51.684;6.954;2023-02-05T03:09:47;10.67;;;3.50;;
6269;SDS011;3168;51.684;6.954;2023-02-05T03:12:15;6.73;;;3.63;;
6269;SDS011;3168;51.684;6.954;2023-02-05T03:14:42;21.20;;;5.40;;
6269;SDS011;3168;51.684;6.954;2023-02-05T03:17:08;5.70;;;4.30;;
6269;SDS011;3168;51.684;6.954;2023-02-05T03:19:33;12.63;;;5.40;;
6269;SDS011;3168;51.684;6.954;2023-02-05T03:22:02;16.20;;;4.27;;
6269;SDS011;3168;51.684;6.954;2023-02-05T03:24:28;6.93;;;5.07;;
6269;SDS011;3168;51.684;6.954;2023-02-05T03:26:53;18.10;;;5.87;;
6269;SDS011;3168;51.684;6.954;2023-02-05T03:29:23;7.27;;;4.60;;
6269;SDS011;3168;51.684;6.954;2023-02-05T03:35:11;6.43;;;5.50;;
6269;SDS011;3168;51.684;6.954;2023-02-05T03:37:45;4.37;;;4.07;;
6269;SDS011;3168;51.684;6.954;2023-02-05T03:40:50;3.77;;;3.47;;
6269;SDS011;3168;51.684;6.954;2023-02-05T03:43:29;9.60;;;4.67;;
6269;SDS011;3168;51.684;6.954;2023-02-05T03:46:18;36.87;;;5.47;;
6269;SDS011;3168;51.684;6.954;2023-02-05T03:48:54;18.33;;;5.00;;
6269;SDS011;3168;51.684;6.954;2023-02-05T03:51:45;7.33;;;3.87;;
6269;SDS011;3168;51.684;6.954;2023-02-05T03:54:26;5.53;;;4.07;;
6269;SDS011;3168;51.684;6.954;2023-02-05T03:56:55;9.20;;;4.80;;
6269;SDS011;3168;51.684;6.954;2023-02-05T03:59:19;4.93;;;4.40;;
6269;SDS011;3168;51.684;6.954;2023-02-05T04:01:45;11.57;;;4.47;;
6269;SDS011;3168;51.684;6.954;2023-02-05T04:04:11;12.10;;;4.97;;
6269;SDS011;3168;51.684;6.954;2023-02-05T04:06:37;4.37;;;4.00;;
6269;SDS011;3168;51.684;6.954;2023-02-05T04:09:03;15.10;;;5.50;;
6269;SDS011;3168;51.684;6.954;2023-02-05T04:11:29;14.37;;;5.63;;
6269;SDS011;3168;51.684;6.954;2023-02-05T04:13:54;9.23;;;4.67;;
6269;SDS011;3168;51.684;6.954;2023-02-05T04:18:59;12.17;;;6.40;;
6269;SDS011;3168;51.684;6.954;2023-02-05T04:21:25;12.57;;;5.50;;
6269;SDS011;3168;51.684;6.954;2023-02-05T04:23:51;6.63;;;5.93;;
6269;SDS011;3168;51.684;6.954;2023-02-05T04:26:18;17.27;;;8.30;;
6269;SDS011;3168;51.684;6.954;2023-02-05T04:28:44;20.60;;;8.03;;
6269;SDS011;3168;51.684;6.954;2023-02-05T04:31:10;14.60;;;7.40;;
6269;SDS011;3168;51.684;6.954;2023-02-05T04:33:36;7.63;;;6.40;;
6269;SDS011;3168;51.684;6.954;2023-02-05T04:36:02;26.63;;;7.53;;
6269;SDS011;3168;51.684;6.954;2023-02-05T04:38:28;6.23;;;4.27;;
6269;SDS011;3168;51.684;6.954;2023-02-05T04:40:54;6.33;;;4.60;;
6269;SDS011;3168;51.684;6.954;2023-02-05T04:43:20;11.30;;;6.20;;
6269;SDS011;3168;51.684;6.954;2023-02-05T04:45:46;12.40;;;6.33;;
6269;SDS011;3168;51.684;6.954;2023-02-05T04:48:12;13.93;;;6.20;;
6269;SDS011;3168;51.684;6.954;2023-02-05T04:50:38;4.50;;;4.20;;
6269;SDS011;3168;51.684;6.954;2023-02-05T04:53:04;13.93;;;8.50;;
6269;SDS011;3168;51.684;6.954;2023-02-05T04:55:30;9.57;;;6.17;;
6269;SDS011;3168;51.684;6.954;2023-02-05T04:57:56;21.40;;;8.00;;
6269;SDS011;3168;51.684;6.954;2023-02-05T05:00:22;11.67;;;6.37;;
6269;SDS011;3168;51.684;6.954;2023-02-05T05:02:48;16.20;;;7.17;;
6269;SDS011;3168;51.684;6.954;2023-02-05T05:05:14;8.03;;;5.20;;
6269;SDS011;3168;51.684;6.954;2023-02-05T05:07:40;23.37;;;7.97;;
6269;SDS011;3168;51.684;6.954;2023-02-05T05:10:07;14.03;;;8.70;;
6269;SDS011;3168;51.684;6.954;2023-02-05T05:12:33;6.13;;;5.73;;
6269;SDS011;3168;51.684;6.954;2023-02-05T05:14:59;18.93;;;7.00;;
6269;SDS011;3168;51.684;6.954;2023-02-05T05:17:25;18.13;;;8.57;;
6269;SDS011;3168;51.684;6.954;2023-02-05T05:19:51;8.00;;;6.67;;
6269;SDS011;3168;51.684;6.954;2023-02-05T05:22:17;10.50;;;7.60;;
6269;SDS011;3168;51.684;6.954;2023-02-05T05:24:43;15.87;;;6.00;;
6269;SDS011;3168;51.684;6.954;2023-02-05T05:27:09;11.10;;;6.37;;
6269;SDS011;3168;51.684;6.954;2023-02-05T05:29:35;34.50;;;8.80;;
6269;SDS011;3168;51.684;6.954;2023-02-05T05:32:01;11.43;;;7.53;;
6269;SDS011;3168;51.684;6.954;2023-02-05T05:34:27;7.10;;;6.27;;
6269;SDS011;3168;51.684;6.954;2023-02-05T05:36:53;10.27;;;6.67;;
6269;SDS011;3168;51.684;6.954;2023-02-05T05:39:19;21.60;;;8.77;;
6269;SDS011;3168;51.684;6.954;2023-02-05T05:41:51;10.93;;;7.00;;
6269;SDS011;3168;51.684;6.954;2023-02-05T05:44:27;28.03;;;8.60;;
6269;SDS011;3168;51.684;6.954;2023-02-05T05:46:53;16.87;;;7.77;;
6269;SDS011;3168;51.684;6.954;2023-02-05T05:49:19;10.90;;;7.53;;
6269;SDS011;3168;51.684;6.954;2023-02-05T05:51:46;13.93;;;9.07;;
6269;SDS011;3168;51.684;6.954;2023-02-05T05:54:12;7.77;;;6.83;;
6269;SDS011;3168;51.684;6.954;2023-02-05T05:56:38;15.27;;;8.83;;
6269;SDS011;3168;51.684;6.954;2023-02-05T05:59:04;42.33;;;9.63;;
6269;SDS011;3168;51.684;6.954;2023-02-05T06:01:29;26.60;;;9.83;;
6269;SDS011;3168;51.684;6.954;2023-02-05T06:03:55;19.43;;;9.70;;
6269;SDS011;3168;51.684;6.954;2023-02-05T06:06:21;28.77;;;9.17;;
6269;SDS011;3168;51.684;6.954;2023-02-05T06:08:47;19.97;;;9.13;;
6269;SDS011;3168;51.684;6.954;2023-02-05T06:11:14;15.10;;;8.17;;
6269;SDS011;3168;51.684;6.954;2023-02-05T06:13:40;14.07;;;9.17;;
6269;SDS011;3168;51.684;6.954;2023-02-05T06:16:06;16.07;;;7.53;;
6269;SDS011;3168;51.684;6.954;2023-02-05T06:18:32;18.87;;;7.97;;
6269;SDS011;3168;51.684;6.954;2023-02-05T06:20:58;14.97;;;9.03;;
6269;SDS011;3168;51.684;6.954;2023-02-05T06:23:24;26.67;;;9.57;;
6269;SDS011;3168;51.684;6.954;2023-02-05T06:25:50;23.97;;;8.23;;
6269;SDS011;3168;51.684;6.954;2023-02-05T06:28:16;33.73;;;10.60;;
6269;SDS011;3168;51.684;6.954;2023-02-05T06:30:42;30.10;;;10.13;;
6269;SDS011;3168;51.684;6.954;2023-02-05T06:33:08;11.37;;;7.57;;
6269;SDS011;3168;51.684;6.954;2023-02-05T06:35:34;11.33;;;7.97;;
6269;SDS011;3168;51.684;6.954;2023-02-05T06:38:00;16.37;;;8.10;;
6269;SDS011;3168;51.684;6.954;2023-02-05T06:40:26;15.83;;;8.80;;
6269;SDS011;3168;51.684;6.954;2023-02-05T06:42:52;30.90;;;10.80;;
6269;SDS011;3168;51.684;6.954;2023-02-05T06:45:18;30.43;;;10.87;;
6269;SDS011;3168;51.684;6.954;2023-02-05T06:47:43;27.47;;;11.23;;
6269;SDS011;3168;51.684;6.954;2023-02-05T06:50:09;25.03;;;10.00;;
6269;SDS011;3168;51.684;6.954;2023-02-05T06:52:37;24.50;;;9.77;;
6269;SDS011;3168;51.684;6.954;2023-02-05T06:55:03;16.80;;;9.00;;
6269;SDS011;3168;51.684;6.954;2023-02-05T06:57:30;18.73;;;9.77;;
6269;SDS011;3168;51.684;6.954;2023-02-05T07:05:25;22.93;;;10.53;;
6269;SDS011;3168;51.684;6.954;2023-02-05T07:07:51;25.70;;;10.67;;
6269;SDS011;3168;51.684;6.954;2023-02-05T07:10:18;17.90;;;8.47;;
6269;SDS011;3168;51.684;6.954;2023-02-05T07:12:44;12.47;;;8.07;;
6269;SDS011;3168;51.684;6.954;2023-02-05T07:15:10;20.33;;;11.30;;
6269;SDS011;3168;51.684;6.954;2023-02-05T07:17:36;20.43;;;10.40;;
6269;SDS011;3168;51.684;6.954;2023-02-05T07:20:03;11.63;;;7.23;;
6269;SDS011;3168;51.684;6.954;2023-02-05T07:22:30;18.57;;;9.10;;
6269;SDS011;3168;51.684;6.954;2023-02-05T07:24:55;18.20;;;8.37;;
6269;SDS011;3168;51.684;6.954;2023-02-05T07:27:22;19.30;;;8.13;;
6269;SDS011;3168;51.684;6.954;2023-02-05T07:29:47;24.93;;;9.33;;
6269;SDS011;3168;51.684;6.954;2023-02-05T07:32:14;18.67;;;9.43;;
6269;SDS011;3168;51.684;6.954;2023-02-05T07:34:40;24.77;;;10.60;;
6269;SDS011;3168;51.684;6.954;2023-02-05T07:37:06;16.43;;;10.20;;
6269;SDS011;3168;51.684;6.954;2023-02-05T07:39:32;9.67;;;5.80;;
6269;SDS011;3168;51.684;6.954;2023-02-05T07:41:58;17.53;;;8.80;;
6269;SDS011;3168;51.684;6.954;2023-02-05T07:44:26;8.30;;;6.30;;
6269;SDS011;3168;51.684;6.954;2023-02-05T07:46:52;15.93;;;8.33;;
6269;SDS011;3168;51.684;6.954;2023-02-05T07:49:17;16.40;;;8.90;;
6269;SDS011;3168;51.684;6.954;2023-02-05T07:51:43;11.27;;;8.13;;
6269;SDS011;3168;51.684;6.954;2023-02-05T07:54:09;8.10;;;7.00;;
6269;SDS011;3168;51.684;6.954;2023-02-05T07:56:35;11.87;;;6.43;;
6269;SDS011;3168;51.684;6.954;2023-02-05T07:59:01;17.47;;;7.90;;
6269;SDS011;3168;51.684;6.954;2023-02-05T08:01:27;4.27;;;3.90;;
6269;SDS011;3168;51.684;6.954;2023-02-05T08:03:54;10.00;;;3.70;;
6269;SDS011;3168;51.684;6.954;2023-02-05T08:06:20;1.83;;;1.73;;
6269;SDS011;3168;51.684;6.954;2023-02-05T08:08:46;2.90;;;1.93;;
6269;SDS011;3168;51.684;6.954;2023-02-05T08:11:13;2.50;;;2.40;;
6269;SDS011;3168;51.684;6.954;2023-02-05T08:13:38;2.27;;;2.17;;
6269;SDS011;3168;51.684;6.954;2023-02-05T08:16:04;1.90;;;1.80;;
6269;SDS011;3168;51.684;6.954;2023-02-05T08:18:32;2.20;;;1.67;;
6269;SDS011;3168;51.684;6.954;2023-02-05T08:20:58;1.53;;;1.43;;
6269;SDS011;3168;51.684;6.954;2023-02-05T08:23:24;0.80;;;0.80;;
6269;SDS011;3168;51.684;6.954;2023-02-05T08:25:53;1.47;;;0.77;;
6269;SDS011;3168;51.684;6.954;2023-02-05T08:28:18;1.83;;;0.63;;
6269;SDS011;3168;51.684;6.954;2023-02-05T08:30:44;0.87;;;0.87;;
6269;SDS011;3168;51.684;6.954;2023-02-05T08:33:10;0.43;;;0.43;;
6269;SDS011;3168;51.684;6.954;2023-02-05T08:35:36;0.50;;;0.50;;
6269;SDS011;3168;51.684;6.954;2023-02-05T08:38:02;0.50;;;0.50;;
6269;SDS011;3168;51.684;6.954;2023-02-05T08:40:27;1.10;;;1.00;;
6269;SDS011;3168;51.684;6.954;2023-02-05T08:42:53;0.80;;;0.80;;
6269;SDS011;3168;51.684;6.954;2023-02-05T08:45:19;0.40;;;0.40;;
6269;SDS011;3168;51.684;6.954;2023-02-05T08:47:45;0.60;;;0.60;;
6269;SDS011;3168;51.684;6.954;2023-02-05T08:50:11;0.40;;;0.40;;
6269;SDS011;3168;51.684;6.954;2023-02-05T08:52:37;0.40;;;0.40;;
6269;SDS011;3168;51.684;6.954;2023-02-05T08:55:03;1.13;;;0.73;;
6269;SDS011;3168;51.684;6.954;2023-02-05T08:57:29;0.40;;;0.40;;
6269;SDS011;3168;51.684;6.954;2023-02-05T08:59:55;0.60;;;0.60;;
6269;SDS011;3168;51.684;6.954;2023-02-05T09:02:22;9.73;;;1.70;;
6269;SDS011;3168;51.684;6.954;2023-02-05T09:04:47;0.97;;;0.97;;
6269;SDS011;3168;51.684;6.954;2023-02-05T09:07:13;0.40;;;0.40;;
6269;SDS011;3168;51.684;6.954;2023-02-05T09:09:38;3.60;;;0.67;;
6269;SDS011;3168;51.684;6.954;2023-02-05T09:12:04;0.50;;;0.50;;
6269;SDS011;3168;51.684;6.954;2023-02-05T09:14:30;0.40;;;0.40;;
6269;SDS011;3168;51.684;6.954;2023-02-05T09:16:56;0.40;;;0.40;;
6269;SDS011;3168;51.684;6.954;2023-02-05T09:19:22;0.43;;;0.43;;
6269;SDS011;3168;51.684;6.954;2023-02-05T09:21:48;0.97;;;0.50;;
6269;SDS011;3168;51.684;6.954;2023-02-05T09:24:14;0.53;;;0.53;;
6269;SDS011;3168;51.684;6.954;2023-02-05T09:26:40;1.00;;;1.00;;
6269;SDS011;3168;51.684;6.954;2023-02-05T09:29:05;0.40;;;0.40;;
6269;SDS011;3168;51.684;6.954;2023-02-05T09:31:31;0.60;;;0.60;;
6269;SDS011;3168;51.684;6.954;2023-02-05T09:33:57;1.13;;;1.03;;
6269;SDS011;3168;51.684;6.954;2023-02-05T09:36:23;0.90;;;0.90;;
6269;SDS011;3168;51.684;6.954;2023-02-05T09:38:49;0.40;;;0.40;;
6269;SDS011;3168;51.684;6.954;2023-02-05T09:41:18;0.40;;;0.40;;
6269;SDS011;3168;51.684;6.954;2023-02-05T09:46:24;2.00;;;0.90;;
6269;SDS011;3168;51.684;6.954;2023-02-05T09:48:52;2.53;;;1.80;;
6269;SDS011;3168;51.684;6.954;2023-02-05T09:51:21;0.57;;;0.57;;
6269;SDS011;3168;51.684;6.954;2023-02-05T09:53:47;5.17;;;0.60;;
6269;SDS011;3168;51.684;6.954;2023-02-05T09:56:12;1.07;;;1.07;;
6269;SDS011;3168;51.684;6.954;2023-02-05T09:58:39;0.90;;;0.90;;
6269;SDS011;3168;51.684;6.954;2023-02-05T10:01:06;0.77;;;0.77;;
6269;SDS011;3168;51.684;6.954;2023-02-05T10:06:42;0.53;;;0.53;;
6269;SDS011;3168;51.684;6.954;2023-02-05T10:11:50;1.07;;;1.00;;
6269;SDS011;3168;51.684;6.954;2023-02-05T10:14:47;0.57;;;0.57;;
6269;SDS011;3168;51.684;6.954;2023-02-05T10:17:18;1.43;;;0.77;;
6269;SDS011;3168;51.684;6.954;2023-02-05T10:19:52;0.40;;;0.40;;
6269;SDS011;3168;51.684;6.954;2023-02-05T10:22:25;3.03;;;1.40;;
6269;SDS011;3168;51.684;6.954;2023-02-05T10:24:59;0.50;;;0.50;;
6269;SDS011;3168;51.684;6.954;2023-02-05T10:27:34;0.60;;;0.57;;
6269;SDS011;3168;51.684;6.954;2023-02-05T10:30:02;0.40;;;0.40;;
6269;SDS011;3168;51.684;6.954;2023-02-05T10:32:47;1.90;;;0.67;;
6269;SDS011;3168;51.684;6.954;2023-02-05T10:35:20;0.40;;;0.40;;
6269;SDS011;3168;51.684;6.954;2023-02-05T10:37:48;0.40;;;0.40;;
6269;SDS011;3168;51.684;6.954;2023-02-05T10:40:13;2.20;;;1.03;;
6269;SDS011;3168;51.684;6.954;2023-02-05T10:42:41;0.90;;;0.70;;
6269;SDS011;3168;51.684;6.954;2023-02-05T10:45:12;0.40;;;0.40;;
6269;SDS011;3168;51.684;6.954;2023-02-05T10:47:55;10.23;;;0.80;;
6269;SDS011;3168;51.684;6.954;2023-02-05T10:50:25;0.40;;;0.40;;
6269;SDS011;3168;51.684;6.954;2023-02-05T10:52:50;1.23;;;0.53;;
6269;SDS011;3168;51.684;6.954;2023-02-05T10:55:16;0.40;;;0.40;;
6269;SDS011;3168;51.684;6.954;2023-02-05T10:57:42;0.60;;;0.60;;
6269;SDS011;3168;51.684;6.954;2023-02-05T11:00:13;0.97;;;0.43;;
6269;SDS011;3168;51.684;6.954;2023-02-05T11:02:39;0.57;;;0.57;;
6269;SDS011;3168;51.684;6.954;2023-02-05T11:05:15;2.67;;;1.10;;
6269;SDS011;3168;51.684;6.954;2023-02-05T11:07:40;2.00;;;1.53;;
6269;SDS011;3168;51.684;6.954;2023-02-05T11:10:37;0.63;;;0.63;;
6269;SDS011;3168;51.684;6.954;2023-02-05T11:12:49;0.50;;;0.50;;
6269;SDS011;3168;51.684;6.954;2023-02-05T11:15:18;0.40;;;0.40;;
6269;SDS011;3168;51.684;6.954;2023-02-05T11:17:44;1.23;;;0.93;;
6269;SDS011;3168;51.684;6.954;2023-02-05T11:20:27;0.40;;;0.40;;
6269;SDS011;3168;51.684;6.954;2023-02-05T11:23:03;0.50;;;0.50;;
6269;SDS011;3168;51.684;6.954;2023-02-05T11:25:29;4.77;;;0.70;;
6269;SDS011;3168;51.684;6.954;2023-02-05T11:27:56;3.30;;;0.80;;
6269;SDS011;3168;51.684;6.954;2023-02-05T11:30:22;0.83;;;0.53;;
6269;SDS011;3168;51.684;6.954;2023-02-05T11:32:52;0.50;;;0.50;;
6269;SDS011;3168;51.684;6.954;2023-02-05T11:35:22;2.03;;;1.93;;
6269;SDS011;3168;51.684;6.954;2023-02-05T11:37:48;0.60;;;0.60;;
6269;SDS011;3168;51.684;6.954;2023-02-05T11:40:29;1.23;;;0.77;;
6269;SDS011;3168;51.684;6.954;2023-02-05T11:42:57;0.40;;;0.40;;
6269;SDS011;3168;51.684;6.954;2023-02-05T11:45:31;1.53;;;1.07;;
6269;SDS011;3168;51.684;6.954;2023-02-05T11:47:59;1.13;;;0.50;;
6269;SDS011;3168;51.684;6.954;2023-02-05T11:50:24;0.40;;;0.40;;
6269;SDS011;3168;51.684;6.954;2023-02-05T11:52:48;0.47;;;0.47;;
6269;SDS011;3168;51.684;6.954;2023-02-05T11:57:49;0.63;;;0.63;;
6269;SDS011;3168;51.684;6.954;2023-02-05T12:00:19;0.50;;;0.50;;
6269;SDS011;3168;51.684;6.954;2023-02-05T12:02:43;1.67;;;0.60;;
6269;SDS011;3168;51.684;6.954;2023-02-05T12:05:18;4.20;;;1.47;;
6269;SDS011;3168;51.684;6.954;2023-02-05T12:07:40;0.93;;;0.80;;
6269;SDS011;3168;51.684;6.954;2023-02-05T12:10:08;3.03;;;1.40;;
6269;SDS011;3168;51.684;6.954;2023-02-05T12:12:33;0.60;;;0.60;;
6269;SDS011;3168;51.684;6.954;2023-02-05T12:15:03;0.80;;;0.70;;
6269;SDS011;3168;51.684;6.954;2023-02-05T12:17:33;5.30;;;0.70;;
6269;SDS011;3168;51.684;6.954;2023-02-05T12:20:06;0.90;;;0.90;;
6269;SDS011;3168;51.684;6.954;2023-02-05T12:22:46;15.13;;;1.50;;
6269;SDS011;3168;51.684;6.954;2023-02-05T12:25:24;3.00;;;1.83;;
6269;SDS011;3168;51.684;6.954;2023-02-05T12:27:56;3.17;;;0.90;;
6269;SDS011;3168;51.684;6.954;2023-02-05T12:30:28;0.60;;;0.60;;
6269;SDS011;3168;51.684;6.954;2023-02-05T12:33:00;7.67;;;2.50;;
6269;SDS011;3168;51.684;6.954;2023-02-05T12:35:26;0.70;;;0.70;;
6269;SDS011;3168;51.684;6.954;2023-02-05T12:38:00;2.40;;;1.07;;
6269;SDS011;3168;51.684;6.954;2023-02-05T12:51:34;0.93;;;0.70;;
6269;SDS011;3168;51.684;6.954;2023-02-05T12:57:04;3.50;;;1.20;;
6269;SDS011;3168;51.684;6.954;2023-02-05T12:59:22;6.87;;;2.00;;
6269;SDS011;3168;51.684;6.954;2023-02-05T13:02:17;1.30;;;1.20;;
6269;SDS011;3168;51.684;6.954;2023-02-05T13:04:50;5.53;;;0.87;;
6269;SDS011;3168;51.684;6.954;2023-02-05T13:09:54;2.33;;;1.53;;
6269;SDS011;3168;51.684;6.954;2023-02-05T13:12:20;3.50;;;0.80;;
6269;SDS011;3168;51.684;6.954;2023-02-05T13:17:22;2.63;;;1.47;;
6269;SDS011;3168;51.684;6.954;2023-02-05T13:19:52;0.60;;;0.60;;
6269;SDS011;3168;51.684;6.954;2023-02-05T13:22:21;1.13;;;0.63;;
6269;SDS011;3168;51.684;6.954;2023-02-05T13:24:53;1.83;;;1.20;;
6269;SDS011;3168;51.684;6.954;2023-02-05T13:27:24;4.33;;;0.90;;
6269;SDS011;3168;51.684;6.954;2023-02-05T13:29:55;2.23;;;0.50;;
6269;SDS011;3168;51.684;6.954;2023-02-05T13:32:21;1.67;;;0.93;;
6269;SDS011;3168;51.684;6.954;2023-02-05T13:34:47;0.50;;;0.50;;
6269;SDS011;3168;51.684;6.954;2023-02-05T13:40:03;0.50;;;0.50;;
6269;SDS011;3168;51.684;6.954;2023-02-05T13:42:36;0.83;;;0.63;;
6269;SDS011;3168;51.684;6.954;2023-02-05T13:45:38;3.83;;;1.90;;
6269;SDS011;3168;51.684;6.954;2023-02-05T13:48:08;0.50;;;0.50;;
6269;SDS011;3168;51.684;6.954;2023-02-05T13:52:00;0.50;;;0.50;;
6269;SDS011;3168;51.684;6.954;2023-02-05T13:53:41;0.70;;;0.50;;
6269;SDS011;3168;51.684;6.954;2023-02-05T13:56:20;1.03;;;1.03;;
6269;SDS011;3168;51.684;6.954;2023-02-05T13:58:57;9.23;;;0.87;;
6269;SDS011;3168;51.684;6.954;2023-02-05T14:01:25;3.53;;;0.67;;
6269;SDS011;3168;51.684;6.954;2023-02-05T14:03:57;1.43;;;1.03;;
6269;SDS011;3168;51.684;6.954;2023-02-05T14:06:26;1.47;;;1.40;;
6269;SDS011;3168;51.684;6.954;2023-02-05T14:08:58;2.63;;;2.30;;
6269;SDS011;3168;51.684;6.954;2023-02-05T14:11:23;1.10;;;1.10;;
6269;SDS011;3168;51.684;6.954;2023-02-05T14:16:36;4.10;;;1.07;;
6269;SDS011;3168;51.684;6.954;2023-02-05T14:19:04;0.80;;;0.80;;
6269;SDS011;3168;51.684;6.954;2023-02-05T14:22:03;9.10;;;1.57;;
6269;SDS011;3168;51.684;6.954;2023-02-05T14:26:49;4.20;;;0.67;;
6269;SDS011;3168;51.684;6.954;2023-02-05T14:29:47;4.43;;;0.83;;
6269;SDS011;3168;51.684;6.954;2023-02-05T14:32:02;7.20;;;0.90;;
6269;SDS011;3168;51.684;6.954;2023-02-05T14:39:48;2.43;;;2.27;;
6269;SDS011;3168;51.684;6.954;2023-02-05T14:42:17;12.03;;;2.37;;
6269;SDS011;3168;51.684;6.954;2023-02-05T14:44:40;0.67;;;0.67;;
6269;SDS011;3168;51.684;6.954;2023-02-05T14:47:18;16.50;;;1.33;;
6269;SDS011;3168;51.684;6.954;2023-02-05T14:49:44;4.40;;;1.67;;
6269;SDS011;3168;51.684;6.954;2023-02-05T14:52:19;2.50;;;1.70;;
6269;SDS011;3168;51.684;6.954;2023-02-05T14:54:42;13.30;;;2.40;;
6269;SDS011;3168;51.684;6.954;2023-02-05T14:57:10;1.13;;;1.00;;
6269;SDS011;3168;51.684;6.954;2023-02-05T14:59:52;4.37;;;1.03;;
6269;SDS011;3168;51.684;6.954;2023-02-05T15:05:07;4.93;;;1.37;;
6269;SDS011;3168;51.684;6.954;2023-02-05T15:07:31;1.57;;;1.00;;
6269;SDS011;3168;51.684;6.954;2023-02-05T15:09:59;10.87;;;3.60;;
6269;SDS011;3168;51.684;6.954;2023-02-05T15:14:57;5.03;;;1.50;;
6269;SDS011;3168;51.684;6.954;2023-02-05T15:20:14;16.53;;;4.27;;
6269;SDS011;3168;51.684;6.954;2023-02-05T15:22:37;14.93;;;2.67;;
6269;SDS011;3168;51.684;6.954;2023-02-05T15:25:02;5.50;;;1.90;;
6269;SDS011;3168;51.684;6.954;2023-02-05T15:30:02;4.00;;;2.63;;
6269;SDS011;3168;51.684;6.954;2023-02-05T15:32:30;2.90;;;2.73;;
6269;SDS011;3168;51.684;6.954;2023-02-05T15:35:00;8.80;;;2.27;;
6269;SDS011;3168;51.684;6.954;2023-02-05T15:37:27;1.43;;;1.17;;
6269;SDS011;3168;51.684;6.954;2023-02-05T15:39:54;4.80;;;1.60;;
6269;SDS011;3168;51.684;6.954;2023-02-05T15:42:22;2.03;;;1.17;;
6269;SDS011;3168;51.684;6.954;2023-02-05T15:44:47;1.60;;;0.90;;
6269;SDS011;3168;51.684;6.954;2023-02-05T15:47:16;0.83;;;0.60;;
6269;SDS011;3168;51.684;6.954;2023-02-05T15:49:41;5.83;;;1.50;;
6269;SDS011;3168;51.684;6.954;2023-02-05T15:52:05;8.00;;;1.50;;
6269;SDS011;3168;51.684;6.954;2023-02-05T15:54:32;8.47;;;0.70;;
6269;SDS011;3168;51.684;6.954;2023-02-05T15:56:57;1.27;;;0.90;;
6269;SDS011;3168;51.684;6.954;2023-02-05T15:59:25;1.00;;;1.00;;
6269;SDS011;3168;51.684;6.954;2023-02-05T16:01:52;5.50;;;1.97;;
6269;SDS011;3168;51.684;6.954;2023-02-05T16:04:23;2.20;;;0.70;;
6269;SDS011;3168;51.684;6.954;2023-02-05T16:06:44;3.63;;;1.50;;
6269;SDS011;3168;51.684;6.954;2023-02-05T16:09:15;8.70;;;1.97;;
6269;SDS011;3168;51.684;6.954;2023-02-05T16:11:40;2.70;;;1.50;;
6269;SDS011;3168;51.684;6.954;2023-02-05T16:14:22;9.13;;;1.25;;
6269;SDS011;3168;51.684;6.954;2023-02-05T16:17:07;1.13;;;1.00;;
6269;SDS011;3168;51.684;6.954;2023-02-05T16:19:50;2.83;;;0.87;;
6269;SDS011;3168;51.684;6.954;2023-02-05T16:22:38;8.63;;;1.53;;